createdAt,value
2018-07-16T00:00:06.124Z,10.23
2018-07-16T00:02:34.440Z,9.60
2018-07-16T00:05:02.808Z,9.67
2018-07-16T00:07:31.249Z,9.67
2018-07-16T00:09:59.524Z,9.13
2018-07-16T00:12:27.917Z,8.67
2018-07-16T00:14:55.885Z,10.47
2018-07-16T00:17:24.158Z,10.43
2018-07-16T00:19:52.683Z,10.77
2018-07-16T00:22:20.969Z,9.37
2018-07-16T00:24:49.242Z,10.40
2018-07-16T00:27:17.581Z,10.10
2018-07-16T00:29:45.829Z,8.63
2018-07-16T00:32:14.117Z,10.23
2018-07-16T00:34:42.394Z,10.67
2018-07-16T00:37:10.831Z,10.73
2018-07-16T00:39:39.119Z,10.57
2018-07-16T00:42:07.410Z,9.70
2018-07-16T00:44:35.696Z,9.93
2018-07-16T00:47:03.973Z,10.03
2018-07-16T00:49:32.253Z,11.40
2018-07-16T00:52:00.514Z,10.47
2018-07-16T00:54:28.853Z,10.70
2018-07-16T00:56:57.136Z,11.50
2018-07-16T00:59:25.521Z,9.57
2018-07-16T01:01:53.909Z,10.70
2018-07-16T01:04:22.221Z,12.47
2018-07-16T01:06:50.545Z,10.77
2018-07-16T01:09:18.961Z,11.23
2018-07-16T01:11:47.236Z,12.07
2018-07-16T01:14:15.507Z,12.80
2018-07-16T01:16:43.793Z,14.87
2018-07-16T01:19:12.068Z,12.50
2018-07-16T01:21:40.425Z,13.03
2018-07-16T01:24:08.738Z,15.17
2018-07-16T01:26:37.002Z,11.90
2018-07-16T01:29:05.277Z,12.10
2018-07-16T01:31:33.554Z,10.90
2018-07-16T01:34:01.831Z,11.10
2018-07-16T01:36:30.316Z,11.17
2018-07-16T01:38:58.688Z,11.90
2018-07-16T01:41:27.062Z,13.77
2018-07-16T01:43:55.345Z,14.43
2018-07-16T01:46:23.622Z,12.97
2018-07-16T01:48:52.000Z,11.97
2018-07-16T01:51:20.293Z,11.03
2018-07-16T01:53:48.591Z,11.53
2018-07-16T01:56:16.917Z,12.17
2018-07-16T01:58:45.205Z,12.60
2018-07-16T02:01:13.484Z,12.23
2018-07-16T02:03:41.725Z,12.07
2018-07-16T02:06:09.969Z,12.60
2018-07-16T02:08:38.211Z,11.47
2018-07-16T02:11:06.492Z,12.70
2018-07-16T02:13:34.764Z,11.73
2018-07-16T02:16:03.041Z,12.20
2018-07-16T02:18:31.308Z,12.07
2018-07-16T02:20:59.660Z,12.67
2018-07-16T02:23:27.933Z,13.13
2018-07-16T02:25:56.225Z,14.03
2018-07-16T02:28:24.528Z,13.37
2018-07-16T02:30:52.798Z,12.63
2018-07-16T02:33:21.081Z,14.17
2018-07-16T02:35:49.349Z,15.80
2018-07-16T02:38:17.646Z,14.87
2018-07-16T02:40:46.017Z,13.67
2018-07-16T02:43:14.384Z,13.13
2018-07-16T02:45:42.690Z,13.60
2018-07-16T02:48:11.032Z,13.60
2018-07-16T02:50:39.399Z,14.70
2018-07-16T02:53:07.948Z,13.47
2018-07-16T02:55:36.276Z,14.00
2018-07-16T02:58:04.901Z,14.80
2018-07-16T03:00:33.239Z,17.03
2018-07-16T03:03:01.592Z,15.37
2018-07-16T03:05:29.934Z,13.57
2018-07-16T03:07:58.259Z,13.67
2018-07-16T03:10:26.591Z,14.10
2018-07-16T03:12:54.921Z,14.40
2018-07-16T03:15:23.220Z,13.83
2018-07-16T03:17:51.545Z,13.83
2018-07-16T03:20:19.876Z,13.63
2018-07-16T03:22:48.186Z,12.80
2018-07-16T03:25:16.536Z,13.83
2018-07-16T03:27:44.883Z,15.47
2018-07-16T03:30:13.221Z,13.40
2018-07-16T03:32:41.492Z,13.47
2018-07-16T03:35:09.905Z,13.47
2018-07-16T03:37:38.224Z,18.00
2018-07-16T03:40:06.748Z,13.17
2018-07-16T03:42:35.155Z,13.87
2018-07-16T03:45:03.773Z,15.93
2018-07-16T03:47:32.157Z,13.60
2018-07-16T03:50:00.515Z,13.47
2018-07-16T03:52:28.889Z,14.27
2018-07-16T03:54:56.988Z,13.57
2018-07-16T03:57:25.339Z,14.50
2018-07-16T03:59:53.820Z,15.77
2018-07-16T04:02:22.192Z,13.27
2018-07-16T04:04:50.519Z,13.90
2018-07-16T04:07:18.892Z,12.63
2018-07-16T04:09:47.276Z,12.07
2018-07-16T04:12:15.660Z,12.83
2018-07-16T04:14:44.009Z,15.80
2018-07-16T04:17:12.344Z,14.17
2018-07-16T04:19:40.668Z,14.40
2018-07-16T04:22:09.065Z,13.43
2018-07-16T04:24:37.430Z,13.97
2018-07-16T04:27:06.372Z,14.17
2018-07-16T04:29:34.674Z,14.23
2018-07-16T04:32:02.993Z,15.83
2018-07-16T04:34:31.416Z,17.27
2018-07-16T04:36:59.740Z,17.43
2018-07-16T04:39:28.191Z,17.27
2018-07-16T04:41:56.599Z,16.57
2018-07-16T04:44:25.090Z,17.30
2018-07-16T04:46:53.567Z,15.40
2018-07-16T04:49:22.116Z,17.63
2018-07-16T04:51:50.498Z,16.30
2018-07-16T04:54:18.840Z,17.63
2018-07-16T04:56:47.225Z,16.90
2018-07-16T04:59:15.576Z,20.20
2018-07-16T05:01:43.896Z,17.60
2018-07-16T05:04:12.238Z,18.23
2018-07-16T05:06:40.648Z,18.20
2018-07-16T05:09:08.990Z,17.40
2018-07-16T05:11:38.225Z,19.97
2018-07-16T05:14:06.542Z,14.30
2018-07-16T05:16:35.080Z,16.67
2018-07-16T05:19:03.382Z,17.20
2018-07-16T05:21:31.779Z,15.10
2018-07-16T05:24:00.150Z,16.80
2018-07-16T05:26:31.516Z,16.57
2018-07-16T05:28:59.836Z,17.13
2018-07-16T05:31:28.323Z,14.87
2018-07-16T05:33:56.645Z,14.53
2018-07-16T05:36:25.020Z,12.33
2018-07-16T05:38:53.324Z,13.03
2018-07-16T05:41:21.692Z,12.97
2018-07-16T05:43:50.017Z,12.17
2018-07-16T05:46:18.420Z,11.33
2018-07-16T05:48:46.845Z,12.40
2018-07-16T05:51:15.208Z,10.40
2018-07-16T05:53:43.540Z,11.30
2018-07-16T05:56:11.964Z,11.43
2018-07-16T05:58:40.291Z,9.87
2018-07-16T06:01:08.641Z,12.00
2018-07-16T06:03:36.927Z,9.23
2018-07-16T06:06:05.288Z,9.93
2018-07-16T06:08:33.641Z,8.63
2018-07-16T06:11:01.948Z,8.37
2018-07-16T06:13:30.303Z,8.03
2018-07-16T06:15:58.608Z,7.70
2018-07-16T06:18:26.924Z,7.33
2018-07-16T06:20:55.255Z,8.13
2018-07-16T06:23:23.740Z,7.30
2018-07-16T06:25:52.069Z,8.00
2018-07-16T06:28:20.484Z,6.97
2018-07-16T06:30:48.821Z,6.60
2018-07-16T06:33:17.172Z,6.57
2018-07-16T06:35:45.492Z,6.23
2018-07-16T06:38:13.788Z,6.00
2018-07-16T06:40:42.263Z,5.87
2018-07-16T06:43:10.439Z,5.80
2018-07-16T06:45:38.777Z,5.83
2018-07-16T06:48:06.951Z,5.47
2018-07-16T06:50:35.298Z,6.60
2018-07-16T06:53:03.652Z,6.60
2018-07-16T06:55:31.997Z,5.40
2018-07-16T06:58:00.328Z,9.23
2018-07-16T07:00:28.735Z,4.43
2018-07-16T07:02:57.084Z,7.50
2018-07-16T07:05:25.532Z,4.70
2018-07-16T07:07:53.836Z,5.80
2018-07-16T07:10:22.582Z,4.10
2018-07-16T07:12:50.981Z,6.30
2018-07-16T07:15:19.290Z,4.93
2018-07-16T07:17:47.556Z,4.17
2018-07-16T07:20:15.924Z,3.80
2018-07-16T07:22:44.223Z,3.70
2018-07-16T07:25:12.525Z,6.13
2018-07-16T07:27:40.836Z,4.10
2018-07-16T07:30:09.136Z,3.20
2018-07-16T07:32:37.613Z,3.77
2018-07-16T07:35:06.113Z,4.03
2018-07-16T07:37:34.360Z,3.83
2018-07-16T07:40:02.705Z,3.23
2018-07-16T07:42:31.023Z,3.03
2018-07-16T07:44:59.326Z,3.27
2018-07-16T07:47:27.652Z,3.50
2018-07-16T07:49:56.005Z,3.30
2018-07-16T07:52:24.300Z,3.43
2018-07-16T07:54:52.759Z,3.90
2018-07-16T07:57:20.689Z,3.43
2018-07-16T07:59:49.009Z,3.30
2018-07-16T08:02:17.346Z,3.30
2018-07-16T08:04:45.644Z,3.03
2018-07-16T08:07:14.432Z,3.00
2018-07-16T08:09:43.688Z,3.67
2018-07-16T08:12:12.912Z,3.13
2018-07-16T08:14:42.516Z,3.30
2018-07-16T08:17:11.318Z,5.03
2018-07-16T08:19:39.708Z,2.60
2018-07-16T08:22:08.402Z,3.20
2018-07-16T08:24:36.716Z,2.83
2018-07-16T08:27:05.173Z,2.93
2018-07-16T08:29:33.497Z,3.27
2018-07-16T08:32:02.026Z,5.23
2018-07-16T08:34:30.435Z,2.60
2018-07-16T08:36:58.864Z,2.73
2018-07-16T08:39:27.228Z,6.20
2018-07-16T08:41:55.558Z,6.67
2018-07-16T08:44:23.885Z,2.43
2018-07-16T08:46:52.244Z,3.20
2018-07-16T08:49:20.585Z,2.85
2018-07-16T08:51:48.884Z,8.28
2018-07-16T08:54:17.233Z,4.70
2018-07-16T08:56:45.553Z,2.35
2018-07-16T08:59:13.909Z,3.00
2018-07-16T09:01:42.198Z,2.77
2018-07-16T09:04:10.579Z,3.05
2018-07-16T09:06:38.885Z,2.45
2018-07-16T09:09:07.277Z,2.58
2018-07-16T09:11:35.651Z,3.25
2018-07-16T09:14:04.030Z,2.83
2018-07-16T09:16:32.433Z,3.50
2018-07-16T09:19:00.779Z,3.75
2018-07-16T09:21:28.826Z,3.58
2018-07-16T09:23:57.151Z,2.87
2018-07-16T09:26:25.493Z,2.70
2018-07-16T09:28:54.988Z,3.12
2018-07-16T09:31:23.289Z,2.92
2018-07-16T09:33:51.732Z,5.12
2018-07-16T09:36:20.080Z,2.72
2018-07-16T09:38:48.393Z,2.95
2018-07-16T09:41:16.733Z,2.67
2018-07-16T09:43:45.052Z,3.33
2018-07-16T09:46:13.392Z,2.90
2018-07-16T09:48:41.725Z,3.42
2018-07-16T09:51:10.358Z,3.33
2018-07-16T09:53:38.748Z,5.00
2018-07-16T09:56:07.153Z,6.08
2018-07-16T09:58:35.496Z,3.67
2018-07-16T10:01:09.162Z,4.72
2018-07-16T10:03:37.549Z,3.58
2018-07-16T10:06:05.913Z,3.35
2018-07-16T10:08:34.051Z,3.05
2018-07-16T10:11:02.289Z,3.15
2018-07-16T10:13:30.609Z,3.10
2018-07-16T10:15:58.941Z,3.20
2018-07-16T10:18:27.221Z,5.08
2018-07-16T10:20:55.564Z,3.62
2018-07-16T10:23:23.858Z,5.10
2018-07-16T10:25:52.333Z,3.67
2018-07-16T10:28:20.581Z,5.67
2018-07-16T10:30:48.980Z,3.33
2018-07-16T10:33:17.293Z,3.47
2018-07-16T10:35:45.613Z,3.35
2018-07-16T10:38:13.984Z,2.92
2018-07-16T10:40:42.921Z,3.00
2018-07-16T10:43:11.276Z,4.53
2018-07-16T10:45:39.584Z,3.47
2018-07-16T10:48:07.931Z,4.42
2018-07-16T10:50:36.272Z,2.87
2018-07-16T10:53:04.673Z,3.22
2018-07-16T10:56:00.089Z,6.28
2018-07-16T10:58:28.433Z,3.87
2018-07-16T11:00:56.756Z,3.25
2018-07-16T11:03:25.057Z,4.08
2018-07-16T11:05:53.424Z,5.78
2018-07-16T11:08:21.745Z,5.45
2018-07-16T11:10:50.041Z,6.00
2018-07-16T11:13:18.367Z,3.37
2018-07-16T11:15:46.680Z,4.33
2018-07-16T11:18:15.008Z,3.65
2018-07-16T11:20:43.341Z,3.50
2018-07-16T11:23:11.349Z,2.77
2018-07-16T11:25:39.712Z,6.42
2018-07-16T11:28:08.031Z,3.10
2018-07-16T11:30:36.325Z,3.58
2018-07-16T11:33:04.700Z,3.40
2018-07-16T11:35:33.156Z,2.95
2018-07-16T11:38:01.345Z,4.47
2018-07-16T11:40:29.692Z,3.08
2018-07-16T11:42:58.009Z,2.37
2018-07-16T11:45:26.360Z,3.08
2018-07-16T11:47:54.693Z,2.67
2018-07-16T11:50:23.081Z,2.75
2018-07-16T11:52:51.387Z,2.70
2018-07-16T11:55:19.688Z,2.98
2018-07-16T11:57:47.992Z,3.72
2018-07-16T12:00:16.324Z,3.52
2018-07-16T12:02:44.717Z,2.60
2018-07-16T12:05:13.508Z,6.10
2018-07-16T12:07:41.793Z,2.40
2018-07-16T12:10:10.153Z,2.55
2018-07-16T12:12:38.513Z,2.55
2018-07-16T12:15:06.829Z,2.33
2018-07-16T12:17:35.157Z,2.98
2018-07-16T12:20:03.542Z,2.25
2018-07-16T12:22:31.856Z,2.27
2018-07-16T12:25:00.198Z,2.25
2018-07-16T12:27:28.589Z,2.22
2018-07-16T12:29:56.903Z,2.42
2018-07-16T12:32:25.337Z,3.98
2018-07-16T12:34:53.651Z,4.12
2018-07-16T12:37:22.014Z,4.60
2018-07-16T12:39:50.372Z,2.25
2018-07-16T12:42:19.267Z,2.17
2018-07-16T12:44:47.608Z,2.50
2018-07-16T12:47:15.908Z,2.47
2018-07-16T12:49:44.236Z,1.90
2018-07-16T12:52:12.446Z,2.47
2018-07-16T12:54:40.769Z,2.05
2018-07-16T12:57:09.175Z,2.72
2018-07-16T12:59:37.469Z,3.87
2018-07-16T13:02:05.788Z,4.10
2018-07-16T13:04:34.091Z,4.40
2018-07-16T13:07:02.401Z,2.83
2018-07-16T13:09:33.817Z,2.52
2018-07-16T13:12:02.088Z,3.27
2018-07-16T13:14:30.441Z,2.58
2018-07-16T13:16:58.753Z,2.52
2018-07-16T13:19:27.068Z,2.75
2018-07-16T13:21:55.558Z,2.40
2018-07-16T13:24:23.776Z,4.25
2018-07-16T13:26:52.073Z,3.00
2018-07-16T13:29:20.469Z,3.33
2018-07-16T13:31:48.784Z,2.02
2018-07-16T13:34:17.137Z,2.45
2018-07-16T13:36:45.460Z,2.17
2018-07-16T13:39:13.787Z,3.52
2018-07-16T13:41:42.124Z,3.35
2018-07-16T13:44:10.441Z,3.47
2018-07-16T13:46:38.757Z,2.20
2018-07-16T13:49:07.100Z,2.17
2018-07-16T13:51:35.436Z,2.40
2018-07-16T13:54:03.776Z,2.80
2018-07-16T13:56:32.155Z,2.52
2018-07-16T13:59:00.484Z,3.87
2018-07-16T14:01:28.812Z,2.80
2018-07-16T14:03:57.120Z,2.83
2018-07-16T14:06:25.460Z,4.72
2018-07-16T14:08:53.745Z,4.58
2018-07-16T14:11:22.177Z,2.77
2018-07-16T14:13:50.525Z,2.77
2018-07-16T14:16:18.880Z,2.80
2018-07-16T14:18:47.257Z,3.80
2018-07-16T14:21:15.639Z,2.62
2018-07-16T14:23:43.952Z,2.60
2018-07-16T14:26:12.296Z,2.90
2018-07-16T14:28:40.604Z,3.30
2018-07-16T14:31:09.143Z,3.00
2018-07-16T14:33:37.618Z,2.98
2018-07-16T14:36:05.937Z,2.85
2018-07-16T14:38:34.427Z,2.80
2018-07-16T14:41:02.704Z,5.87
2018-07-16T14:43:31.038Z,3.55
2018-07-16T14:45:59.413Z,4.35
2018-07-16T14:48:27.712Z,3.95
2018-07-16T14:50:56.193Z,3.33
2018-07-16T14:53:24.548Z,3.05
2018-07-16T14:55:52.880Z,2.50
2018-07-16T14:58:21.328Z,3.47
2018-07-16T15:00:49.683Z,3.27
2018-07-16T15:03:18.000Z,3.72
2018-07-16T15:05:46.344Z,3.75
2018-07-16T15:08:14.710Z,3.37
2018-07-16T15:10:43.024Z,5.83
2018-07-16T15:13:11.372Z,3.55
2018-07-16T15:15:39.688Z,2.85
2018-07-16T15:18:07.735Z,4.47
2018-07-16T15:20:36.244Z,3.17
2018-07-16T15:23:04.436Z,3.72
2018-07-16T15:25:32.819Z,3.08
2018-07-16T15:28:01.619Z,4.35
2018-07-16T15:30:30.092Z,3.60
2018-07-16T15:32:58.476Z,4.00
2018-07-16T15:35:26.801Z,4.17
2018-07-16T15:37:55.382Z,2.98
2018-07-16T15:40:23.692Z,5.30
2018-07-16T15:42:51.755Z,4.10
2018-07-16T15:45:20.100Z,3.80
2018-07-16T15:47:48.453Z,3.65
2018-07-16T15:50:16.812Z,5.20
2018-07-16T15:52:45.245Z,4.67
2018-07-16T15:55:13.577Z,3.08
2018-07-16T15:57:41.902Z,3.40
2018-07-16T16:00:12.469Z,3.72
2018-07-16T16:02:40.802Z,5.25
2018-07-16T16:05:09.206Z,4.10
2018-07-16T16:07:37.540Z,3.45
2018-07-16T16:10:05.853Z,6.67
2018-07-16T16:12:34.221Z,5.17
2018-07-16T16:15:02.603Z,6.72
2018-07-16T16:17:30.955Z,3.95
2018-07-16T16:19:59.364Z,4.83
2018-07-16T16:22:27.641Z,4.37
2018-07-16T16:24:55.900Z,3.92
2018-07-16T16:27:24.229Z,3.90
2018-07-16T16:29:52.577Z,3.50
2018-07-16T16:32:20.899Z,7.72
2018-07-16T16:34:49.260Z,3.20
2018-07-16T16:37:17.629Z,3.72
2018-07-16T16:39:45.660Z,3.00
2018-07-16T16:42:14.044Z,3.80
2018-07-16T16:44:42.353Z,3.40
2018-07-16T16:47:10.796Z,6.42
2018-07-16T16:49:39.112Z,3.83
2018-07-16T16:52:07.478Z,4.80
2018-07-16T16:54:35.845Z,4.03
2018-07-16T16:57:04.237Z,3.17
2018-07-16T16:59:32.562Z,3.25
2018-07-16T17:02:01.008Z,3.12
2018-07-16T17:04:29.321Z,15.88
2018-07-16T17:06:57.801Z,3.40
2018-07-16T17:09:26.110Z,5.85
2018-07-16T17:11:54.482Z,3.87
2018-07-16T17:14:22.744Z,4.08
2018-07-16T17:16:51.068Z,4.58
2018-07-16T17:19:19.380Z,4.03
2018-07-16T17:21:47.687Z,3.02
2018-07-16T17:24:16.144Z,3.45
2018-07-16T17:26:44.456Z,3.50
2018-07-16T17:29:12.752Z,4.40
2018-07-16T17:31:41.120Z,3.22
2018-07-16T17:34:09.470Z,3.10
2018-07-16T17:36:37.813Z,5.92
2018-07-16T17:39:07.979Z,3.33
2018-07-16T17:41:36.280Z,3.93
2018-07-16T17:44:04.788Z,3.20
2018-07-16T17:46:33.090Z,3.00
2018-07-16T17:49:01.424Z,2.70
2018-07-16T17:51:29.776Z,3.50
2018-07-16T17:53:58.061Z,3.27
2018-07-16T17:56:26.406Z,4.25
2018-07-16T17:58:54.717Z,6.03
2018-07-16T18:01:23.084Z,7.40
2018-07-16T18:03:51.385Z,3.40
2018-07-16T18:06:19.709Z,3.87
2018-07-16T18:08:48.150Z,3.57
2018-07-16T18:11:16.504Z,4.20
2018-07-16T18:13:44.825Z,4.10
2018-07-16T18:16:13.280Z,5.63
2018-07-16T18:18:41.821Z,3.37
2018-07-16T18:21:10.201Z,3.90
2018-07-16T18:23:38.528Z,3.50
2018-07-16T18:26:06.875Z,4.27
2018-07-16T18:28:35.474Z,4.97
2018-07-16T18:31:03.824Z,4.50
2018-07-16T18:33:32.156Z,3.50
2018-07-16T18:36:00.533Z,3.97
2018-07-16T18:38:29.032Z,5.50
2018-07-16T18:40:57.409Z,4.20
2018-07-16T18:43:25.706Z,5.13
2018-07-16T18:45:54.401Z,4.10
2018-07-16T18:48:23.165Z,4.93
2018-07-16T18:50:51.505Z,4.87
2018-07-16T18:53:20.041Z,4.37
2018-07-16T18:55:48.377Z,4.27
2018-07-16T18:58:16.702Z,4.03
2018-07-16T19:00:45.105Z,5.07
2018-07-16T19:03:13.362Z,6.23
2018-07-16T19:05:41.601Z,4.60
2018-07-16T19:08:09.850Z,4.07
2018-07-16T19:10:37.965Z,4.90
2018-07-16T19:13:06.297Z,4.50
2018-07-16T19:15:34.596Z,5.77
2018-07-16T19:18:02.861Z,6.57
2018-07-16T19:20:31.171Z,7.83
2018-07-16T19:22:59.346Z,7.53
2018-07-16T19:25:27.617Z,6.70
2018-07-16T19:27:55.892Z,5.67
2018-07-16T19:30:24.150Z,6.57
2018-07-16T19:32:52.432Z,8.00
2018-07-16T19:35:23.681Z,5.17
2018-07-16T19:37:52.852Z,6.50
2018-07-16T19:40:21.082Z,5.20
2018-07-16T19:42:49.527Z,5.07
2018-07-16T19:45:17.776Z,4.73
2018-07-16T19:47:46.105Z,4.60
2018-07-16T19:50:14.359Z,7.23
2018-07-16T19:52:42.595Z,4.83
2018-07-16T19:55:10.930Z,5.17
2018-07-16T19:57:39.146Z,7.23
2018-07-16T20:00:07.672Z,4.77
2018-07-16T20:02:36.007Z,6.37
2018-07-16T20:05:04.361Z,5.10
2018-07-16T20:07:32.625Z,6.77
2018-07-16T20:10:01.220Z,5.80
2018-07-16T20:12:33.061Z,5.67
2018-07-16T20:15:02.321Z,5.37
2018-07-16T20:17:30.825Z,6.80
2018-07-16T20:19:59.476Z,6.17
2018-07-16T20:22:28.187Z,6.67
2018-07-16T20:24:56.577Z,6.13
2018-07-16T20:27:24.852Z,5.67
2018-07-16T20:29:53.273Z,6.07
2018-07-16T20:32:21.580Z,7.47
2018-07-16T20:34:49.773Z,5.87
2018-07-16T20:37:18.109Z,5.90
2018-07-16T20:39:46.581Z,6.30
2018-07-16T20:42:14.872Z,6.97
2018-07-16T20:44:43.137Z,4.90
2018-07-16T20:47:11.384Z,6.47
2018-07-16T20:49:39.682Z,7.33
2018-07-16T20:52:08.223Z,5.57
2018-07-16T20:54:36.176Z,5.13
2018-07-16T20:57:04.468Z,7.80
2018-07-16T20:59:32.825Z,7.67
2018-07-16T21:02:01.151Z,5.93
2018-07-16T21:04:29.678Z,10.20
2018-07-16T21:06:57.909Z,5.90
2018-07-16T21:09:26.157Z,6.17
2018-07-16T21:11:54.465Z,6.03
2018-07-16T21:14:22.721Z,8.30
2018-07-16T21:16:51.293Z,9.00
2018-07-16T21:19:19.546Z,29.27
2018-07-16T21:21:47.781Z,18.13
2018-07-16T21:24:16.041Z,10.23
2018-07-16T21:26:44.324Z,8.90
2018-07-16T21:29:12.624Z,8.43
2018-07-16T21:31:42.812Z,9.20
2018-07-16T21:34:11.121Z,7.40
2018-07-16T21:36:39.360Z,10.70
2018-07-16T21:39:07.862Z,11.57
2018-07-16T21:41:36.104Z,18.10
2018-07-16T21:44:04.447Z,18.77
2018-07-16T21:46:32.678Z,16.90
2018-07-16T21:49:00.965Z,8.13
2018-07-16T21:51:29.257Z,7.10
2018-07-16T21:53:57.520Z,9.27
2018-07-16T21:56:25.764Z,9.50
2018-07-16T21:58:54.020Z,8.63
2018-07-16T22:01:22.317Z,18.00
2018-07-16T22:03:50.625Z,8.73
2018-07-16T22:06:18.850Z,7.43
2018-07-16T22:08:47.151Z,25.87
2018-07-16T22:11:15.623Z,28.27
2018-07-16T22:13:43.840Z,33.10
2018-07-16T22:16:12.201Z,22.53
2018-07-16T22:18:40.449Z,18.10
2018-07-16T22:21:08.784Z,62.43
2018-07-16T22:23:37.024Z,26.27
2018-07-16T22:26:05.322Z,17.23
2018-07-16T22:28:33.585Z,19.00
2018-07-16T22:31:01.876Z,16.67
2018-07-16T22:33:30.109Z,21.43
2018-07-16T22:35:58.408Z,18.10
2018-07-16T22:38:26.661Z,18.27
2018-07-16T22:40:54.967Z,12.47
2018-07-16T22:43:23.217Z,11.20
2018-07-16T22:45:51.457Z,8.10
2018-07-16T22:48:19.722Z,10.63
2018-07-16T22:50:47.968Z,13.07
2018-07-16T22:53:16.230Z,8.63
2018-07-16T22:55:44.499Z,8.87
2018-07-16T22:58:12.729Z,9.90
2018-07-16T23:00:40.969Z,8.33
2018-07-16T23:03:09.316Z,9.10
2018-07-16T23:05:37.552Z,8.93
2018-07-16T23:08:05.864Z,8.20
2018-07-16T23:10:34.089Z,7.80
2018-07-16T23:13:02.331Z,8.87
2018-07-16T23:15:30.617Z,8.63
2018-07-16T23:17:58.856Z,9.43
2018-07-16T23:20:26.849Z,10.50
2018-07-16T23:22:56.051Z,8.90
2018-07-16T23:25:24.365Z,10.67
2018-07-16T23:27:52.613Z,9.87
2018-07-16T23:30:20.916Z,8.97
2018-07-16T23:32:49.168Z,9.43
2018-07-16T23:35:18.137Z,9.20
2018-07-16T23:37:46.694Z,10.60
2018-07-16T23:40:14.932Z,9.47
2018-07-16T23:42:43.193Z,11.00
2018-07-16T23:45:11.458Z,9.80
2018-07-16T23:47:39.731Z,9.93
2018-07-16T23:50:08.085Z,11.13
2018-07-16T23:52:36.482Z,11.77
2018-07-16T23:55:04.769Z,9.77
2018-07-16T23:57:33.045Z,10.63
